Pacific Hope — 3FLH6 — position and weather

sailwx.info

Track history (hours):
 
Tides and Currents Weather Stations Pressure Air Temp Water Temp Dewpoint Dewpoint Depression Visibility Wind Speed Wind Dir Waves Ship Positions

Pacific Hope

Last reported at 2017-Nov-20 00:30 UTC. Time now 2017-Nov-22 03:21 UTC.
Position N 33°57' E 135°00'.

Length 169 m; draft 5.6 m.

Type: Cargo ship. MMSI: 351849000.

Date/timePositionNaut miles runAvg speedWind from/ knotsBaromVisibWave heightAir tempDewpointWater temp
2017-Nov-20 00:30N 33°57' E 135°00'5 0.1
2017-Nov-18 11:40N 33°52' E 134°58'314.5
2017-Nov-18 11:28N 33°55' E 134°58'714.5
2017-Nov-18 11:00N 34°02' E 134°58'714.3
2017-Nov-18 10:30N 34°09' E 134°58'612.2
2017-Nov-18 10:00N 34°15' E 134°58'713.6
2017-Nov-18 09:31N 34°21' E 134°60'914.8
2017-Nov-18 08:53N 34°28' E 135°08'614.9
2017-Nov-18 08:30N 34°32' E 135°13'713.4
2017-Nov-18 08:00N 34°38' E 135°16'4 8.2
2017-Nov-18 07:30N 34°42' E 135°15'0 0.4
2017-Nov-18 06:55N 34°42' E 135°16'0 0.0
2017-Nov-18 06:19N 34°42' E 135°16'0 0.0
2017-Nov-18 05:56N 34°42' E 135°16'0 0.0
2017-Nov-18 05:20N 34°42' E 135°16'0 0.0
2017-Nov-18 04:56N 34°42' E 135°16'0 0.0
2017-Nov-18 04:26N 34°42' E 135°16'0 0.0
2017-Nov-18 03:38N 34°42' E 135°16'0 0.0
2017-Nov-18 03:26N 34°42' E 135°16'0 0.0
2017-Nov-18 02:56N 34°42' E 135°16'0 0.0
2017-Nov-18 02:20N 34°42' E 135°16'0 0.0
2017-Nov-18 01:44N 34°42' E 135°16'0 0.0
2017-Nov-18 01:13N 34°42' E 135°16'0 0.0
2017-Nov-18 00:56N 34°42' E 135°16'0 0.0
2017-Nov-18 00:25N 34°42' E 135°16'0 0.0
2017-Nov-17 23:56N 34°42' E 135°16'0 0.0
2017-Nov-17 23:26N 34°42' E 135°16'0 0.0
2017-Nov-17 22:44N 34°42' E 135°16'0 0.9
2017-Nov-17 22:30N 34°42' E 135°15'3 6.2
2017-Nov-17 22:01N 34°39' E 135°16'1 1.2
2017-Nov-17 21:18N 34°38' E 135°17'0 0.0
2017-Nov-17 21:00N 34°38' E 135°17'0 0.0
2017-Nov-17 20:30N 34°38' E 135°17'0 0.0
2017-Nov-17 20:00N 34°38' E 135°17'0 0.0
2017-Nov-17 19:30N 34°38' E 135°17'0 0.0
2017-Nov-17 19:00N 34°38' E 135°17'0 0.0
2017-Nov-17 18:30N 34°38' E 135°17'0 0.0
2017-Nov-17 18:00N 34°38' E 135°17'0 0.0
2017-Nov-17 17:30N 34°38' E 135°17'0 0.0
2017-Nov-17 17:00N 34°38' E 135°17'0 0.0
2017-Nov-17 16:30N 34°38' E 135°17'0 0.0
2017-Nov-17 16:00N 34°38' E 135°17'0 0.0
2017-Nov-17 15:30N 34°38' E 135°17'0 0.0
2017-Nov-17 15:00N 34°38' E 135°17'0 0.0
2017-Nov-17 14:30N 34°38' E 135°17'0 0.0
2017-Nov-17 14:00N 34°38' E 135°17'0 0.0
2017-Nov-17 13:30N 34°38' E 135°17'0 0.0
2017-Nov-17 13:00N 34°38' E 135°17'0 0.0
2017-Nov-17 12:24N 34°38' E 135°17'0 0.0
2017-Nov-17 12:00N 34°38' E 135°17'0 0.0
2017-Nov-17 11:18N 34°38' E 135°17'0 0.0
2017-Nov-17 11:00N 34°38' E 135°17'0 0.0
2017-Nov-17 10:30N 34°38' E 135°17'0 0.0
2017-Nov-17 09:48N 34°38' E 135°17'0 0.0
2017-Nov-17 09:30N 34°38' E 135°17'0 0.0
2017-Nov-17 09:00N 34°38' E 135°17'0 0.0
2017-Nov-17 08:24N 34°38' E 135°17'0 0.0
2017-Nov-17 08:00N 34°38' E 135°17'0 0.1
2017-Nov-17 07:30N 34°38' E 135°17'0 0.1
2017-Nov-17 06:42N 34°38' E 135°17'0 0.1
2017-Nov-17 06:30N 34°38' E 135°17'0 0.1
2017-Nov-17 06:00N 34°38' E 135°17'0 0.3
2017-Nov-17 05:30N 34°38' E 135°17'4 7.2
2017-Nov-17 05:00N 34°35' E 135°16'713.5
2017-Nov-17 04:30N 34°29' E 135°11'713.7
2017-Nov-17 04:00N 34°24' E 135°06'713.1
2017-Nov-17 03:30N 34°19' E 135°00'612.2
2017-Nov-17 03:00N 34°13' E 134°59'510.9
2017-Nov-17 02:30N 34°08' E 134°60'5 9.9
2017-Nov-17 02:00N 34°03' E 135°01'220 9.2
2017-Nov-16 02:04N 34°52' E 139°21'412.9
2017-Nov-16 01:46N 34°54' E 139°24'312.8
2017-Nov-16 01:30N 34°56' E 139°28'713.3
2017-Nov-16 01:00N 34°59' E 139°35'713.4
2017-Nov-16 00:30N 35°04' E 139°41'713.6
2017-Nov-16 00:00N 35°10' E 139°45'5 9.5
2017-Nov-15 23:30N 35°14' E 139°46'612.1
2017-Nov-15 23:01N 35°20' E 139°43'612.0
2017-Nov-15 22:31N 35°25' E 139°42'4 7.5
2017-Nov-15 22:01N 35°28' E 139°39'0 0.9
2017-Nov-15 21:28N 35°29' E 139°39'0 0.0
2017-Nov-15 20:58N 35°29' E 139°39'0 0.0
2017-Nov-15 20:28N 35°29' E 139°39'0 0.0
2017-Nov-15 19:58N 35°29' E 139°39'0 0.0
2017-Nov-15 19:28N 35°29' E 139°39'0 0.0
2017-Nov-15 18:58N 35°29' E 139°39'0 0.0
2017-Nov-15 18:28N 35°29' E 139°39'0 0.0
2017-Nov-15 17:58N 35°29' E 139°39'0 0.0
2017-Nov-15 17:28N 35°29' E 139°39'0 0.0
2017-Nov-15 16:58N 35°29' E 139°39'0 0.0
2017-Nov-15 16:28N 35°29' E 139°39'0 0.0
2017-Nov-15 15:58N 35°29' E 139°39'0 0.0
2017-Nov-15 15:28N 35°29' E 139°39'0 0.0
2017-Nov-15 14:58N 35°29' E 139°39'0 0.0
2017-Nov-15 14:28N 35°29' E 139°39'0 0.0
2017-Nov-15 13:58N 35°29' E 139°39'0 0.0
2017-Nov-15 13:28N 35°29' E 139°39'0 0.0
2017-Nov-15 12:58N 35°29' E 139°39'0 0.0
2017-Nov-15 12:28N 35°29' E 139°39'0 0.0
2017-Nov-15 11:58N 35°29' E 139°39'0 0.0
2017-Nov-15 11:28N 35°29' E 139°39'0 0.0
2017-Nov-15 10:58N 35°29' E 139°39'0 0.0
2017-Nov-15 10:28N 35°29' E 139°39'0 0.0
2017-Nov-15 09:58N 35°29' E 139°39'0 0.0
2017-Nov-15 09:28N 35°29' E 139°39'0 0.0
2017-Nov-15 08:58N 35°29' E 139°39'0 0.0
2017-Nov-15 08:28N 35°29' E 139°39'0 0.0
2017-Nov-15 07:58N 35°29' E 139°39'0 0.0
2017-Nov-15 07:28N 35°29' E 139°39'0 0.0
2017-Nov-15 06:58N 35°29' E 139°39'0 0.0
2017-Nov-15 06:28N 35°29' E 139°39'0 0.0
2017-Nov-15 05:58N 35°29' E 139°39'0 0.0
2017-Nov-15 05:28N 35°29' E 139°39'0 0.0
2017-Nov-15 04:58N 35°29' E 139°39'0 0.0
2017-Nov-15 04:28N 35°29' E 139°39'0 0.0
2017-Nov-15 03:58N 35°29' E 139°39'0 0.0
2017-Nov-15 03:28N 35°29' E 139°39'0 0.0
2017-Nov-15 02:58N 35°29' E 139°39'0 0.0
2017-Nov-15 02:28N 35°29' E 139°39'0 0.0
2017-Nov-15 01:58N 35°29' E 139°39'0 0.0
2017-Nov-15 01:28N 35°29' E 139°39'0 0.0
2017-Nov-15 00:58N 35°29' E 139°39'0 0.0
2017-Nov-15 00:28N 35°29' E 139°39'0 0.0
2017-Nov-14 23:58N 35°29' E 139°39'0 0.0
2017-Nov-14 23:28N 35°29' E 139°39'0 0.0
2017-Nov-14 22:58N 35°29' E 139°39'0 0.0
2017-Nov-14 22:25N 35°29' E 139°39'0 0.0
2017-Nov-14 21:58N 35°29' E 139°39'0 0.0
2017-Nov-14 21:28N 35°29' E 139°39'0 0.0
2017-Nov-14 20:58N 35°29' E 139°39'0 0.0
2017-Nov-14 20:28N 35°29' E 139°39'0 0.0
2017-Nov-14 19:55N 35°29' E 139°39'0 0.0
2017-Nov-14 19:28N 35°29' E 139°39'0 0.0
2017-Nov-14 18:58N 35°29' E 139°39'0 0.0
2017-Nov-14 18:28N 35°29' E 139°39'0 0.0
2017-Nov-14 17:58N 35°29' E 139°39'0 0.0
2017-Nov-14 17:28N 35°29' E 139°39'0 0.0
2017-Nov-14 16:58N 35°29' E 139°39'0 0.0
2017-Nov-14 16:28N 35°29' E 139°39'0 0.0
2017-Nov-14 15:58N 35°29' E 139°39'0 0.0
2017-Nov-14 15:28N 35°29' E 139°39'0 0.0
2017-Nov-14 14:58N 35°29' E 139°39'0 0.0
2017-Nov-14 14:28N 35°29' E 139°39'0 0.0
2017-Nov-14 13:58N 35°29' E 139°39'0 0.0
2017-Nov-14 13:28N 35°29' E 139°39'0 0.0
2017-Nov-14 12:58N 35°29' E 139°39'0 0.0
2017-Nov-14 12:28N 35°29' E 139°39'0 0.0
2017-Nov-14 11:58N 35°29' E 139°39'0 0.0
2017-Nov-14 11:28N 35°29' E 139°39'0 0.0
2017-Nov-14 10:58N 35°29' E 139°39'0 0.0
2017-Nov-14 10:28N 35°29' E 139°39'0 0.0
2017-Nov-14 09:58N 35°29' E 139°39'0 0.0
2017-Nov-14 09:28N 35°29' E 139°39'0 0.0
2017-Nov-14 08:58N 35°29' E 139°39'0 0.0
2017-Nov-14 08:28N 35°29' E 139°39'0 0.0
2017-Nov-14 07:58N 35°29' E 139°39'0 0.0
2017-Nov-14 07:28N 35°29' E 139°39'0 0.0
2017-Nov-14 06:58N 35°29' E 139°39'0 0.0
2017-Nov-14 06:28N 35°29' E 139°39'0 0.0
2017-Nov-14 05:58N 35°29' E 139°39'0 0.0
2017-Nov-14 05:28N 35°29' E 139°39'0 0.0
2017-Nov-14 04:58N 35°29' E 139°39'0 0.0
2017-Nov-14 04:28N 35°29' E 139°39'0 0.0
2017-Nov-14 03:58N 35°29' E 139°39'0 0.0
2017-Nov-14 03:28N 35°29' E 139°39'0 0.0
2017-Nov-14 02:58N 35°29' E 139°39'0 0.0
2017-Nov-14 02:28N 35°29' E 139°39'0 0.0
2017-Nov-14 01:58N 35°29' E 139°39'0 0.0
2017-Nov-14 01:28N 35°29' E 139°39'0 0.0
2017-Nov-14 00:58N 35°29' E 139°39'0 0.0
2017-Nov-14 00:28N 35°29' E 139°39'0 0.0
2017-Nov-13 23:58N 35°29' E 139°39'0 0.0
2017-Nov-13 23:28N 35°29' E 139°39'0 0.0
2017-Nov-13 22:58N 35°29' E 139°39'0 0.0
2017-Nov-13 22:28N 35°29' E 139°39'0 0.0
2017-Nov-13 21:58N 35°29' E 139°39'0 0.0
2017-Nov-13 01:58N 35°29' E 139°39'0 0.0
2017-Nov-13 01:28N 35°29' E 139°39'0 0.0
2017-Nov-13 00:58N 35°29' E 139°39'0 0.0
2017-Nov-13 00:25N 35°29' E 139°39'0 0.0
2017-Nov-12 23:58N 35°29' E 139°39'0 0.0
2017-Nov-12 23:28N 35°29' E 139°39'0 0.0
2017-Nov-12 23:00N 35°29' E 139°39'0 0.8
2017-Nov-12 22:30N 35°28' E 139°39'1 1.7
2017-Nov-12 22:00N 35°28' E 139°40'3 6.3
2017-Nov-12 21:31N 35°26' E 139°43'1 1.5
2017-Nov-12 20:58N 35°26' E 139°44'0 0.1
2017-Nov-12 20:28N 35°26' E 139°44'0 0.0
2017-Nov-12 19:58N 35°26' E 139°44'0 0.1
2017-Nov-12 19:28N 35°26' E 139°44'0 0.0
2017-Nov-12 18:58N 35°26' E 139°44'0 0.0
2017-Nov-12 18:28N 35°26' E 139°44'0 0.0
2017-Nov-12 17:58N 35°26' E 139°44'0 0.0
2017-Nov-12 17:28N 35°26' E 139°44'0 0.1
2017-Nov-12 16:58N 35°26' E 139°44'0 0.1
2017-Nov-12 16:28N 35°26' E 139°44'0 0.1
2017-Nov-12 15:58N 35°26' E 139°44'0 0.0
2017-Nov-12 15:28N 35°26' E 139°44'0 0.2
2017-Nov-12 14:58N 35°26' E 139°44'0 0.0
2017-Nov-12 14:28N 35°26' E 139°44'0 0.2
2017-Nov-12 13:58N 35°26' E 139°44'0 0.2
2017-Nov-12 13:25N 35°26' E 139°44'0 0.0
2017-Nov-12 12:58N 35°26' E 139°44'0 0.0
2017-Nov-12 12:28N 35°26' E 139°44'0 0.1
2017-Nov-12 11:58N 35°26' E 139°44'0 0.0
2017-Nov-12 11:28N 35°26' E 139°44'0 0.0
2017-Nov-12 10:58N 35°26' E 139°44'0 0.0
2017-Nov-12 10:28N 35°26' E 139°44'0 0.0
2017-Nov-12 09:55N 35°26' E 139°44'0 0.0
2017-Nov-12 09:28N 35°26' E 139°44'0 0.1
2017-Nov-12 08:58N 35°26' E 139°44'0 0.1
2017-Nov-12 08:28N 35°26' E 139°44'0 0.1
2017-Nov-12 07:58N 35°26' E 139°44'0 0.0
2017-Nov-12 07:28N 35°26' E 139°44'0 0.0
2017-Nov-12 06:58N 35°26' E 139°44'0 0.0
2017-Nov-12 06:28N 35°26' E 139°44'0 0.0
2017-Nov-12 05:58N 35°26' E 139°44'0 0.0
2017-Nov-12 05:28N 35°26' E 139°44'0 0.0
2017-Nov-12 04:58N 35°26' E 139°44'0 0.0
2017-Nov-12 04:28N 35°26' E 139°44'0 0.0
2017-Nov-12 03:58N 35°26' E 139°44'0 0.0
2017-Nov-12 03:28N 35°26' E 139°44'0 0.0
2017-Nov-12 02:58N 35°26' E 139°44'0 0.0
2017-Nov-12 02:28N 35°26' E 139°44'0 0.1
2017-Nov-12 01:58N 35°26' E 139°44'0 0.0
2017-Nov-12 01:28N 35°26' E 139°44'0 0.0
2017-Nov-12 00:58N 35°26' E 139°44'0 1.0
2017-Nov-12 00:30N 35°25' E 139°44'4 8.8
2017-Nov-12 00:00N 35°21' E 139°43'611.5
2017-Nov-11 23:30N 35°16' E 139°47'611.1
2017-Nov-11 23:00N 35°10' E 139°47'3 6.9
2017-Nov-11 22:30N 35°07' E 139°46'4 8.6
2017-Nov-11 22:00N 35°03' E 139°44'4 8.6
2017-Nov-11 21:30N 34°59' E 139°42'4 7.1
2017-Nov-11 21:00N 34°55' E 139°43'5 9.4
2017-Nov-11 20:30N 34°53' E 139°48'5 8.6
2017-Nov-11 19:57N 34°50' E 139°53'6 7.8
2017-Nov-11 19:09N 34°53' E 139°60'1 8.1
2017-Nov-11 18:59N 34°53' E 140°01'7 7.9
2017-Nov-11 18:04N 34°56' E 140°09'15 8.1
2017-Nov-11 16:13N 35°04' E 140°25'  
Track history (hours):
 
Tides and Currents Weather Stations Pressure Air Temp Water Temp Dewpoint Dewpoint Depression Visibility Wind Speed Wind Dir Waves Ship Positions

Pacific Hope

Last reported at 2017-Nov-20 00:30 UTC. Time now 2017-Nov-22 03:21 UTC.
Position N 33°57' E 135°00'.

Length 169 m; draft 5.6 m.

Type: Cargo ship. MMSI: 351849000.

Date/timePositionNaut miles runAvg speedWind from/ knotsBaromVisibWave heightAir tempDewpointWater temp
2017-Nov-20 00:30N 33°57' E 135°00'5 0.1
2017-Nov-18 11:40N 33°52' E 134°58'314.5
2017-Nov-18 11:28N 33°55' E 134°58'714.5
2017-Nov-18 11:00N 34°02' E 134°58'714.3
2017-Nov-18 10:30N 34°09' E 134°58'612.2
2017-Nov-18 10:00N 34°15' E 134°58'713.6
2017-Nov-18 09:31N 34°21' E 134°60'914.8
2017-Nov-18 08:53N 34°28' E 135°08'614.9
2017-Nov-18 08:30N 34°32' E 135°13'713.4
2017-Nov-18 08:00N 34°38' E 135°16'4 8.2
2017-Nov-18 07:30N 34°42' E 135°15'0 0.4
2017-Nov-18 06:55N 34°42' E 135°16'0 0.0
2017-Nov-18 06:19N 34°42' E 135°16'0 0.0
2017-Nov-18 05:56N 34°42' E 135°16'0 0.0
2017-Nov-18 05:20N 34°42' E 135°16'0 0.0
2017-Nov-18 04:56N 34°42' E 135°16'0 0.0
2017-Nov-18 04:26N 34°42' E 135°16'0 0.0
2017-Nov-18 03:38N 34°42' E 135°16'0 0.0
2017-Nov-18 03:26N 34°42' E 135°16'0 0.0
2017-Nov-18 02:56N 34°42' E 135°16'0 0.0
2017-Nov-18 02:20N 34°42' E 135°16'0 0.0
2017-Nov-18 01:44N 34°42' E 135°16'0 0.0
2017-Nov-18 01:13N 34°42' E 135°16'0 0.0
2017-Nov-18 00:56N 34°42' E 135°16'0 0.0
2017-Nov-18 00:25N 34°42' E 135°16'0 0.0
2017-Nov-17 23:56N 34°42' E 135°16'0 0.0
2017-Nov-17 23:26N 34°42' E 135°16'0 0.0
2017-Nov-17 22:44N 34°42' E 135°16'0 0.9
2017-Nov-17 22:30N 34°42' E 135°15'3 6.2
2017-Nov-17 22:01N 34°39' E 135°16'1 1.2
2017-Nov-17 21:18N 34°38' E 135°17'0 0.0
2017-Nov-17 21:00N 34°38' E 135°17'0 0.0
2017-Nov-17 20:30N 34°38' E 135°17'0 0.0
2017-Nov-17 20:00N 34°38' E 135°17'0 0.0
2017-Nov-17 19:30N 34°38' E 135°17'0 0.0
2017-Nov-17 19:00N 34°38' E 135°17'0 0.0
2017-Nov-17 18:30N 34°38' E 135°17'0 0.0
2017-Nov-17 18:00N 34°38' E 135°17'0 0.0
2017-Nov-17 17:30N 34°38' E 135°17'0 0.0
2017-Nov-17 17:00N 34°38' E 135°17'0 0.0
2017-Nov-17 16:30N 34°38' E 135°17'0 0.0
2017-Nov-17 16:00N 34°38' E 135°17'0 0.0
2017-Nov-17 15:30N 34°38' E 135°17'0 0.0
2017-Nov-17 15:00N 34°38' E 135°17'0 0.0
2017-Nov-17 14:30N 34°38' E 135°17'0 0.0
2017-Nov-17 14:00N 34°38' E 135°17'0 0.0
2017-Nov-17 13:30N 34°38' E 135°17'0 0.0
2017-Nov-17 13:00N 34°38' E 135°17'0 0.0
2017-Nov-17 12:24N 34°38' E 135°17'0 0.0
2017-Nov-17 12:00N 34°38' E 135°17'0 0.0
2017-Nov-17 11:18N 34°38' E 135°17'0 0.0
2017-Nov-17 11:00N 34°38' E 135°17'0 0.0
2017-Nov-17 10:30N 34°38' E 135°17'0 0.0
2017-Nov-17 09:48N 34°38' E 135°17'0 0.0
2017-Nov-17 09:30N 34°38' E 135°17'0 0.0
2017-Nov-17 09:00N 34°38' E 135°17'0 0.0
2017-Nov-17 08:24N 34°38' E 135°17'0 0.0
2017-Nov-17 08:00N 34°38' E 135°17'0 0.1
2017-Nov-17 07:30N 34°38' E 135°17'0 0.1
2017-Nov-17 06:42N 34°38' E 135°17'0 0.1
2017-Nov-17 06:30N 34°38' E 135°17'0 0.1
2017-Nov-17 06:00N 34°38' E 135°17'0 0.3
2017-Nov-17 05:30N 34°38' E 135°17'4 7.2
2017-Nov-17 05:00N 34°35' E 135°16'713.5
2017-Nov-17 04:30N 34°29' E 135°11'713.7
2017-Nov-17 04:00N 34°24' E 135°06'713.1
2017-Nov-17 03:30N 34°19' E 135°00'612.2
2017-Nov-17 03:00N 34°13' E 134°59'510.9
2017-Nov-17 02:30N 34°08' E 134°60'5 9.9
2017-Nov-17 02:00N 34°03' E 135°01'220 9.2
2017-Nov-16 02:04N 34°52' E 139°21'412.9
2017-Nov-16 01:46N 34°54' E 139°24'312.8
2017-Nov-16 01:30N 34°56' E 139°28'713.3
2017-Nov-16 01:00N 34°59' E 139°35'713.4
2017-Nov-16 00:30N 35°04' E 139°41'713.6
2017-Nov-16 00:00N 35°10' E 139°45'5 9.5
2017-Nov-15 23:30N 35°14' E 139°46'612.1
2017-Nov-15 23:01N 35°20' E 139°43'612.0
2017-Nov-15 22:31N 35°25' E 139°42'4 7.5
2017-Nov-15 22:01N 35°28' E 139°39'0 0.9
2017-Nov-15 21:28N 35°29' E 139°39'0 0.0
2017-Nov-15 20:58N 35°29' E 139°39'0 0.0
2017-Nov-15 20:28N 35°29' E 139°39'0 0.0
2017-Nov-15 19:58N 35°29' E 139°39'0 0.0
2017-Nov-15 19:28N 35°29' E 139°39'0 0.0
2017-Nov-15 18:58N 35°29' E 139°39'0 0.0
2017-Nov-15 18:28N 35°29' E 139°39'0 0.0
2017-Nov-15 17:58N 35°29' E 139°39'0 0.0
2017-Nov-15 17:28N 35°29' E 139°39'0 0.0
2017-Nov-15 16:58N 35°29' E 139°39'0 0.0
2017-Nov-15 16:28N 35°29' E 139°39'0 0.0
2017-Nov-15 15:58N 35°29' E 139°39'0 0.0
2017-Nov-15 15:28N 35°29' E 139°39'0 0.0
2017-Nov-15 14:58N 35°29' E 139°39'0 0.0
2017-Nov-15 14:28N 35°29' E 139°39'0 0.0
2017-Nov-15 13:58N 35°29' E 139°39'0 0.0
2017-Nov-15 13:28N 35°29' E 139°39'0 0.0
2017-Nov-15 12:58N 35°29' E 139°39'0 0.0
2017-Nov-15 12:28N 35°29' E 139°39'0 0.0
2017-Nov-15 11:58N 35°29' E 139°39'0 0.0
2017-Nov-15 11:28N 35°29' E 139°39'0 0.0
2017-Nov-15 10:58N 35°29' E 139°39'0 0.0
2017-Nov-15 10:28N 35°29' E 139°39'0 0.0
2017-Nov-15 09:58N 35°29' E 139°39'0 0.0
2017-Nov-15 09:28N 35°29' E 139°39'0 0.0
2017-Nov-15 08:58N 35°29' E 139°39'0 0.0
2017-Nov-15 08:28N 35°29' E 139°39'0 0.0
2017-Nov-15 07:58N 35°29' E 139°39'0 0.0
2017-Nov-15 07:28N 35°29' E 139°39'0 0.0
2017-Nov-15 06:58N 35°29' E 139°39'0 0.0
2017-Nov-15 06:28N 35°29' E 139°39'0 0.0
2017-Nov-15 05:58N 35°29' E 139°39'0 0.0
2017-Nov-15 05:28N 35°29' E 139°39'0 0.0
2017-Nov-15 04:58N 35°29' E 139°39'0 0.0
2017-Nov-15 04:28N 35°29' E 139°39'0 0.0
2017-Nov-15 03:58N 35°29' E 139°39'0 0.0
2017-Nov-15 03:28N 35°29' E 139°39'0 0.0
2017-Nov-15 02:58N 35°29' E 139°39'0 0.0
2017-Nov-15 02:28N 35°29' E 139°39'0 0.0
2017-Nov-15 01:58N 35°29' E 139°39'0 0.0
2017-Nov-15 01:28N 35°29' E 139°39'0 0.0
2017-Nov-15 00:58N 35°29' E 139°39'0 0.0
2017-Nov-15 00:28N 35°29' E 139°39'0 0.0
2017-Nov-14 23:58N 35°29' E 139°39'0 0.0
2017-Nov-14 23:28N 35°29' E 139°39'0 0.0
2017-Nov-14 22:58N 35°29' E 139°39'0 0.0
2017-Nov-14 22:25N 35°29' E 139°39'0 0.0
2017-Nov-14 21:58N 35°29' E 139°39'0 0.0
2017-Nov-14 21:28N 35°29' E 139°39'0 0.0
2017-Nov-14 20:58N 35°29' E 139°39'0 0.0
2017-Nov-14 20:28N 35°29' E 139°39'0 0.0
2017-Nov-14 19:55N 35°29' E 139°39'0 0.0
2017-Nov-14 19:28N 35°29' E 139°39'0 0.0
2017-Nov-14 18:58N 35°29' E 139°39'0 0.0
2017-Nov-14 18:28N 35°29' E 139°39'0 0.0
2017-Nov-14 17:58N 35°29' E 139°39'0 0.0
2017-Nov-14 17:28N 35°29' E 139°39'0 0.0
2017-Nov-14 16:58N 35°29' E 139°39'0 0.0
2017-Nov-14 16:28N 35°29' E 139°39'0 0.0
2017-Nov-14 15:58N 35°29' E 139°39'0 0.0
2017-Nov-14 15:28N 35°29' E 139°39'0 0.0
2017-Nov-14 14:58N 35°29' E 139°39'0 0.0
2017-Nov-14 14:28N 35°29' E 139°39'0 0.0
2017-Nov-14 13:58N 35°29' E 139°39'0 0.0
2017-Nov-14 13:28N 35°29' E 139°39'0 0.0
2017-Nov-14 12:58N 35°29' E 139°39'0 0.0
2017-Nov-14 12:28N 35°29' E 139°39'0 0.0
2017-Nov-14 11:58N 35°29' E 139°39'0 0.0
2017-Nov-14 11:28N 35°29' E 139°39'0 0.0
2017-Nov-14 10:58N 35°29' E 139°39'0 0.0
2017-Nov-14 10:28N 35°29' E 139°39'0 0.0
2017-Nov-14 09:58N 35°29' E 139°39'0 0.0
2017-Nov-14 09:28N 35°29' E 139°39'0 0.0
2017-Nov-14 08:58N 35°29' E 139°39'0 0.0
2017-Nov-14 08:28N 35°29' E 139°39'0 0.0
2017-Nov-14 07:58N 35°29' E 139°39'0 0.0
2017-Nov-14 07:28N 35°29' E 139°39'0 0.0
2017-Nov-14 06:58N 35°29' E 139°39'0 0.0
2017-Nov-14 06:28N 35°29' E 139°39'0 0.0
2017-Nov-14 05:58N 35°29' E 139°39'0 0.0
2017-Nov-14 05:28N 35°29' E 139°39'0 0.0
2017-Nov-14 04:58N 35°29' E 139°39'0 0.0
2017-Nov-14 04:28N 35°29' E 139°39'0 0.0
2017-Nov-14 03:58N 35°29' E 139°39'0 0.0
2017-Nov-14 03:28N 35°29' E 139°39'0 0.0
2017-Nov-14 02:58N 35°29' E 139°39'0 0.0
2017-Nov-14 02:28N 35°29' E 139°39'0 0.0
2017-Nov-14 01:58N 35°29' E 139°39'0 0.0
2017-Nov-14 01:28N 35°29' E 139°39'0 0.0
2017-Nov-14 00:58N 35°29' E 139°39'0 0.0
2017-Nov-14 00:28N 35°29' E 139°39'0 0.0
2017-Nov-13 23:58N 35°29' E 139°39'0 0.0
2017-Nov-13 23:28N 35°29' E 139°39'0 0.0
2017-Nov-13 22:58N 35°29' E 139°39'0 0.0
2017-Nov-13 22:28N 35°29' E 139°39'0 0.0
2017-Nov-13 21:58N 35°29' E 139°39'0 0.0
2017-Nov-13 01:58N 35°29' E 139°39'0 0.0
2017-Nov-13 01:28N 35°29' E 139°39'0 0.0
2017-Nov-13 00:58N 35°29' E 139°39'0 0.0
2017-Nov-13 00:25N 35°29' E 139°39'0 0.0
2017-Nov-12 23:58N 35°29' E 139°39'0 0.0
2017-Nov-12 23:28N 35°29' E 139°39'0 0.0
2017-Nov-12 23:00N 35°29' E 139°39'0 0.8
2017-Nov-12 22:30N 35°28' E 139°39'1 1.7
2017-Nov-12 22:00N 35°28' E 139°40'3 6.3
2017-Nov-12 21:31N 35°26' E 139°43'1 1.5
2017-Nov-12 20:58N 35°26' E 139°44'0 0.1
2017-Nov-12 20:28N 35°26' E 139°44'0 0.0
2017-Nov-12 19:58N 35°26' E 139°44'0 0.1
2017-Nov-12 19:28N 35°26' E 139°44'0 0.0
2017-Nov-12 18:58N 35°26' E 139°44'0 0.0
2017-Nov-12 18:28N 35°26' E 139°44'0 0.0
2017-Nov-12 17:58N 35°26' E 139°44'0 0.0
2017-Nov-12 17:28N 35°26' E 139°44'0 0.1
2017-Nov-12 16:58N 35°26' E 139°44'0 0.1
2017-Nov-12 16:28N 35°26' E 139°44'0 0.1
2017-Nov-12 15:58N 35°26' E 139°44'0 0.0
2017-Nov-12 15:28N 35°26' E 139°44'0 0.2
2017-Nov-12 14:58N 35°26' E 139°44'0 0.0
2017-Nov-12 14:28N 35°26' E 139°44'0 0.2
2017-Nov-12 13:58N 35°26' E 139°44'0 0.2
2017-Nov-12 13:25N 35°26' E 139°44'0 0.0
2017-Nov-12 12:58N 35°26' E 139°44'0 0.0
2017-Nov-12 12:28N 35°26' E 139°44'0 0.1
2017-Nov-12 11:58N 35°26' E 139°44'0 0.0
2017-Nov-12 11:28N 35°26' E 139°44'0 0.0
2017-Nov-12 10:58N 35°26' E 139°44'0 0.0
2017-Nov-12 10:28N 35°26' E 139°44'0 0.0
2017-Nov-12 09:55N 35°26' E 139°44'0 0.0
2017-Nov-12 09:28N 35°26' E 139°44'0 0.1
2017-Nov-12 08:58N 35°26' E 139°44'0 0.1
2017-Nov-12 08:28N 35°26' E 139°44'0 0.1
2017-Nov-12 07:58N 35°26' E 139°44'0 0.0
2017-Nov-12 07:28N 35°26' E 139°44'0 0.0
2017-Nov-12 06:58N 35°26' E 139°44'0 0.0
2017-Nov-12 06:28N 35°26' E 139°44'0 0.0
2017-Nov-12 05:58N 35°26' E 139°44'0 0.0
2017-Nov-12 05:28N 35°26' E 139°44'0 0.0
2017-Nov-12 04:58N 35°26' E 139°44'0 0.0
2017-Nov-12 04:28N 35°26' E 139°44'0 0.0
2017-Nov-12 03:58N 35°26' E 139°44'0 0.0
2017-Nov-12 03:28N 35°26' E 139°44'0 0.0
2017-Nov-12 02:58N 35°26' E 139°44'0 0.0
2017-Nov-12 02:28N 35°26' E 139°44'0 0.1
2017-Nov-12 01:58N 35°26' E 139°44'0 0.0
2017-Nov-12 01:28N 35°26' E 139°44'0 0.0
2017-Nov-12 00:58N 35°26' E 139°44'0 1.0
2017-Nov-12 00:30N 35°25' E 139°44'4 8.8
2017-Nov-12 00:00N 35°21' E 139°43'611.5
2017-Nov-11 23:30N 35°16' E 139°47'611.1
2017-Nov-11 23:00N 35°10' E 139°47'3 6.9
2017-Nov-11 22:30N 35°07' E 139°46'4 8.6
2017-Nov-11 22:00N 35°03' E 139°44'4 8.6
2017-Nov-11 21:30N 34°59' E 139°42'4 7.1
2017-Nov-11 21:00N 34°55' E 139°43'5 9.4
2017-Nov-11 20:30N 34°53' E 139°48'5 8.6
2017-Nov-11 19:57N 34°50' E 139°53'6 7.8
2017-Nov-11 19:09N 34°53' E 139°60'1 8.1
2017-Nov-11 18:59N 34°53' E 140°01'7 7.9
2017-Nov-11 18:04N 34°56' E 140°09'15 8.1
2017-Nov-11 16:13N 35°04' E 140°25'  

Dump ship's entire track history